Time;durP1;ratioP1;P1;durP2;ratioP2;P2;SDS_P1;SDS_P2;PMS_P1;PMS_P2;Temp;Humidity;BMP_temperature;BMP_pressure;BME280_temperature;BME280_humidity;BME280_pressure;Samples;Min_cycle;Max_cycle;Signal;HPM_P1;HPM_P2
2020/12/10 00:03:17;;;;;;;38.95;22.65;;;;;;;2.78;98.31;100594.19;10408967;28;20277;-80
2020/12/10 00:08:17;;;;;;;39.15;20.15;;;;;;;3.02;98.95;100630.34;10402734;28;20077;-80
2020/12/10 00:13:18;;;;;;;34.42;19.02;;;;;;;3.25;98.52;100650.47;10383697;28;20044;-80
2020/12/10 00:18:20;;;;;;;32.42;18.70;;;;;;;3.05;98.51;100630.47;10388789;28;20081;-80
2020/12/10 00:23:21;;;;;;;29.50;17.45;;;;;;;3.08;97.44;100647.75;10397785;28;20128;-81
2020/12/10 00:28:21;;;;;;;35.67;18.05;;;;;;;2.85;97.46;100588.38;10406927;28;20048;-80
2020/12/10 00:33:22;;;;;;;38.25;19.88;;;;;;;3.24;97.93;100632.84;10380422;28;20053;-80
2020/12/10 00:38:24;;;;;;;35.38;17.83;;;;;;;3.22;97.78;100640.38;10400951;28;20051;-79
2020/12/10 00:43:25;;;;;;;40.53;20.07;;;;;;;3.05;97.88;100627.03;10398183;28;20038;-79
2020/12/10 00:48:26;;;;;;;36.50;18.25;;;;;;;3.09;97.27;100636.00;10367651;28;20041;-79
2020/12/10 00:53:30;;;;;;;34.35;18.50;;;;;;;3.17;96.82;100653.91;10400523;28;20033;-79
2020/12/10 00:58:30;;;;;;;31.30;18.00;;;;;;;2.80;96.94;100583.97;10403310;28;20404;-79
2020/12/10 01:03:31;;;;;;;33.60;18.33;;;;;;;3.13;95.98;100634.28;10400485;28;20033;-79
2020/12/10 01:08:31;;;;;;;33.45;18.10;;;;;;;2.93;97.39;100612.41;10401888;28;20115;-79
2020/12/10 01:13:34;;;;;;;34.25;16.63;;;;;;;2.08;96.53;100470.56;10399471;28;20103;-79
2020/12/10 01:18:35;;;;;;;30.63;17.65;;;;;;;2.84;96.41;100608.94;10394233;28;20115;-79
2020/12/10 01:23:35;;;;;;;25.95;15.52;;;;;;;2.99;96.38;100614.91;10400861;28;21487;-79
2020/12/10 01:28:36;;;;;;;27.50;15.18;;;;;;;2.65;96.48;100563.06;10402044;28;20049;-79
2020/12/10 01:33:36;;;;;;;26.92;15.43;;;;;;;2.57;96.33;100566.53;10390804;28;20061;-79
2020/12/10 01:38:37;;;;;;;27.23;14.80;;;;;;;2.62;95.93;100585.06;10388483;28;20076;-79
2020/12/10 01:43:38;;;;;;;25.27;14.45;;;;;;;2.37;96.78;100557.22;10400995;28;20037;-79
2020/12/10 01:48:39;;;;;;;26.77;14.07;;;;;;;2.77;96.97;100624.63;10387764;28;20092;-79
2020/12/10 01:53:39;;;;;;;26.60;13.02;;;;;;;2.75;96.96;100621.47;10397033;28;20048;-79
2020/12/10 01:58:40;;;;;;;21.27;12.63;;;;;;;2.63;96.70;100602.63;10388060;28;20049;-79
2020/12/10 02:03:40;;;;;;;23.60;12.85;;;;;;;2.73;96.54;100602.34;10405932;28;20039;-79
2020/12/10 02:08:44;;;;;;;19.92;11.52;;;;;;;2.63;96.18;100600.72;10391668;28;20061;-79
2020/12/10 02:13:44;;;;;;;21.33;12.15;;;;;;;2.68;95.42;100586.47;10378898;28;20085;-79
2020/12/10 02:18:45;;;;;;;21.75;12.60;;;;;;;2.20;95.71;100526.72;10380275;28;20040;-79
2020/12/10 02:23:45;;;;;;;24.70;12.50;;;;;;;2.30;96.13;100536.31;10387710;28;20048;-79
2020/12/10 02:28:45;;;;;;;21.92;12.88;;;;;;;2.34;96.09;100542.63;10394676;28;20468;-79
2020/12/10 02:33:46;;;;;;;24.90;12.70;;;;;;;2.19;96.77;100513.69;10369154;28;20057;-79
2020/12/10 02:38:46;;;;;;;23.40;11.88;;;;;;;2.39;96.92;100539.78;10397808;28;20041;-79
2020/12/10 02:43:47;;;;;;;23.40;13.07;;;;;;;2.47;96.97;100555.03;10392284;28;20037;-79
2020/12/10 02:48:48;;;;;;;22.48;13.48;;;;;;;2.46;96.57;100545.47;10377038;28;20091;-79
2020/12/10 02:53:49;;;;;;;23.58;12.70;;;;;;;1.87;96.20;100457.78;10399575;28;20702;-79
2020/12/10 02:58:50;;;;;;;21.33;12.48;;;;;;;1.93;96.86;100463.78;10362738;28;20492;-79
2020/12/10 03:03:52;;;;;;;25.60;12.35;;;;;;;2.02;96.29;100483.25;10368746;28;20051;-79
2020/12/10 03:08:53;;;;;;;24.40;13.55;;;;;;;1.75;96.90;100446.16;10401840;28;20063;-78
2020/12/10 03:13:53;;;;;;;26.88;15.38;;;;;;;1.68;97.18;100447.38;10392513;28;20048;-79
2020/12/10 03:18:57;;;;;;;26.13;13.65;;;;;;;1.80;97.31;100475.34;10400296;28;20048;-78
2020/12/10 03:23:57;;;;;;;21.70;12.82;;;;;;;1.98;97.56;100519.63;10382622;28;20134;-78
2020/12/10 03:28:58;;;;;;;22.95;13.07;;;;;;;1.51;98.15;100458.00;10398490;28;20046;-78
2020/12/10 03:33:58;;;;;;;25.50;14.05;;;;;;;1.97;98.46;100512.69;10393743;28;20914;-78
2020/12/10 03:38:59;;;;;;;23.02;12.38;;;;;;;1.94;98.01;100513.31;10382061;28;20052;-79
2020/12/10 03:43:59;;;;;;;24.42;13.82;;;;;;;1.70;98.01;100484.41;10388082;28;20073;-79
2020/12/10 03:49:02;;;;;;;25.63;14.15;;;;;;;1.37;98.83;100451.97;10383914;28;20061;-78
2020/12/10 03:54:03;;;;;;;22.98;12.27;;;;;;;0.64;98.77;100324.47;10409917;28;20107;-78
2020/12/10 03:59:04;;;;;;;21.45;12.10;;;;;;;1.69;98.44;100499.59;10393482;28;20043;-79
2020/12/10 04:04:06;;;;;;;22.20;12.13;;;;;;;1.15;99.26;100418.94;10387260;28;20029;-78
2020/12/10 04:09:07;;;;;;;24.37;12.43;;;;;;;1.22;99.47;100432.63;10398128;28;20057;-79
2020/12/10 04:14:07;;;;;;;23.65;12.38;;;;;;;1.44;99.34;100478.97;10400932;28;20296;-79
2020/12/10 04:19:08;;;;;;;23.05;13.18;;;;;;;0.03;99.61;100278.88;10379864;28;20030;-79
2020/12/10 04:24:08;;;;;;;26.98;12.48;;;;;;;1.42;100.00;100502.44;10393134;28;20402;-79
2020/12/10 04:29:13;;;;;;;24.65;11.82;;;;;;;1.21;100.00;100455.00;10395581;28;20040;-79
2020/12/10 04:34:14;;;;;;;24.48;12.65;;;;;;;1.61;99.96;100505.66;10408893;28;20053;-79
2020/12/10 04:39:15;;;;;;;21.95;11.98;;;;;;;1.49;99.49;100486.81;10368254;28;20066;-79
2020/12/10 04:44:15;;;;;;;19.63;11.38;;;;;;;0.94;99.02;100401.94;10409060;28;20505;-79
2020/12/10 04:49:16;;;;;;;22.52;11.63;;;;;;;1.49;99.23;100465.50;10401725;28;20045;-79
2020/12/10 04:54:16;;;;;;;18.52;10.65;;;;;;;1.52;99.33;100480.88;10401898;28;20652;-79
2020/12/10 04:59:17;;;;;;;21.25;10.80;;;;;;;1.77;99.48;100513.28;10406054;28;20086;-79
2020/12/10 05:04:17;;;;;;;20.65;10.40;;;;;;;1.39;98.68;100471.09;10390624;28;20064;-79
2020/12/10 05:09:18;;;;;;;20.27;10.30;;;;;;;1.49;99.00;100470.81;10402371;28;20072;-79
2020/12/10 05:14:18;;;;;;;19.27;9.40;;;;;;;1.33;98.40;100451.00;10374328;28;20037;-79
2020/12/10 05:19:20;;;;;;;17.25;9.40;;;;;;;1.89;98.62;100534.78;10382293;28;20405;-78
2020/12/10 05:24:20;;;;;;;18.95;9.48;;;;;;;2.00;98.34;100528.09;10390183;28;20048;-78
2020/12/10 05:29:34;;;;;;;16.38;9.32;;;;;;;1.16;97.93;100399.25;10410044;28;20040;-77
2020/12/10 05:34:35;;;;;;;16.40;8.73;;;;;;;1.97;97.96;100518.03;10379272;28;20033;-79
2020/12/10 05:39:35;;;;;;;15.88;9.98;;;;;;;1.47;97.24;100435.72;10386945;28;20048;-79
2020/12/10 05:44:36;;;;;;;17.60;9.55;;;;;;;2.00;97.00;100516.63;10391920;28;20044;-79
2020/12/10 05:49:36;;;;;;;17.50;9.10;;;;;;;1.14;97.61;100390.78;10398300;28;20053;-80
2020/12/10 05:54:40;;;;;;;17.88;9.15;;;;;;;0.83;97.38;100362.28;10395450;28;20481;-77
2020/12/10 05:59:42;;;;;;;17.42;9.40;;;;;;;2.00;97.20;100533.44;10384815;28;20607;-77
2020/12/10 06:04:42;;;;;;;17.57;9.80;;;;;;;1.74;97.76;100487.22;10391193;28;20136;-77
2020/12/10 06:09:43;;;;;;;17.10;9.15;;;;;;;1.83;97.68;100522.69;10363015;28;20051;-77
2020/12/10 06:15:00;;;;;;;18.17;10.15;;;;;;;1.89;98.41;100526.78;10400640;28;20048;-78
2020/12/10 06:20:00;;;;;;;19.70;9.82;;;;;;;1.82;98.50;100523.78;10384443;28;20041;-77
2020/12/10 06:25:03;;;;;;;17.40;9.68;;;;;;;1.97;97.68;100544.69;10372653;28;20042;-77
2020/12/10 06:30:11;;;;;;;;;;;;;;;2.04;97.63;100554.91;10396283;28;20041;-76
2020/12/10 06:35:25;;;;;;;18.35;9.57;;;;;;;1.75;97.38;100516.22;10395362;28;19924;-77
2020/12/10 06:40:35;;;;;;;19.35;9.77;;;;;;;1.88;97.84;100541.19;10375238;28;20478;-78
2020/12/10 06:45:40;;;;;;;17.88;9.50;;;;;;;1.66;98.27;100516.19;10380685;28;20050;-78
2020/12/10 06:50:40;;;;;;;19.33;9.20;;;;;;;1.86;97.84;100548.75;10393466;28;20037;-76
2020/12/10 06:56:13;;;;;;;23.73;11.18;;;;;;;1.95;98.22;100554.09;10402298;28;20057;-76
2020/12/10 07:01:32;;;;;;;;;;;;;;;1.94;97.78;100550.66;10397671;28;20136;-78
2020/12/10 07:06:35;;;;;;;22.05;11.35;;;;;;;1.57;97.94;100494.03;10403158;28;20004;-76
2020/12/10 07:11:37;;;;;;;18.85;10.40;;;;;;;1.79;98.27;100537.75;10361445;28;20057;-77
2020/12/10 07:16:44;;;;;;;20.58;11.18;;;;;;;1.86;97.90;100543.41;10408599;28;20041;-78
2020/12/10 07:21:49;;;;;;;19.65;9.95;;;;;;;1.36;98.15;100479.69;10402567;28;20065;-78
2020/12/10 07:26:52;;;;;;;17.65;10.32;;;;;;;1.25;98.44;100471.97;10412376;28;20034;-78
2020/12/10 07:31:53;;;;;;;22.20;11.00;;;;;;;1.02;98.15;100435.81;10415541;28;20120;-78
2020/12/10 07:36:55;;;;;;;20.15;10.70;;;;;;;1.89;98.79;100554.22;10401227;28;20045;-77
2020/12/10 07:41:56;;;;;;;23.08;11.55;;;;;;;1.97;98.39;100560.69;10398613;28;20044;-78
2020/12/10 07:46:59;;;;;;;21.58;12.15;;;;;;;1.92;98.18;100547.50;10390709;28;20065;-78
2020/12/10 07:52:07;;;;;;;19.95;11.05;;;;;;;1.57;97.49;100488.72;10386048;28;20570;-78
2020/12/10 07:57:25;;;;;;;22.40;10.70;;;;;;;1.19;97.61;100435.91;10375515;28;20042;-77
2020/12/10 08:02:40;;;;;;;23.15;11.23;;;;;;;1.21;96.95;100465.66;10381505;28;20043;-78
2020/12/10 08:08:01;;;;;;;20.02;11.23;;;;;;;2.13;96.98;100573.63;10404759;28;20160;-77
2020/12/10 08:13:20;;;;;;;21.60;11.15;;;;;;;1.78;97.25;100536.16;10406448;28;20478;-78
2020/12/10 08:18:20;;;;;;;22.45;10.85;;;;;;;1.58;96.84;100495.63;10380412;28;20049;-78
2020/12/10 08:23:21;;;;;;;20.35;10.30;;;;;;;2.12;96.24;100567.50;10368272;28;20044;-78
2020/12/10 08:28:21;;;;;;;19.08;11.18;;;;;;;1.65;96.78;100501.31;10389841;28;20037;-79
2020/12/10 08:33:51;;;;;;;21.73;11.07;;;;;;;2.09;96.16;100552.91;10405853;28;20058;-78
2020/12/10 08:38:52;;;;;;;16.33;9.63;;;;;;;2.22;96.49;100566.44;10398584;28;20056;-77
2020/12/10 08:44:16;;;;;;;19.45;9.95;;;;;;;2.08;95.97;100546.00;10384891;28;20048;-79
2020/12/10 08:49:25;;;;;;;19.63;10.70;;;;;;;2.22;95.96;100566.44;10393455;28;20049;-78
2020/12/10 08:54:25;;;;;;;15.65;9.75;;;;;;;2.30;95.49;100574.44;10381353;28;20134;-78
2020/12/10 08:59:28;;;;;;;18.98;9.90;;;;;;;2.45;95.43;100583.91;10395755;28;20053;-78
2020/12/10 09:04:31;;;;;;;17.60;10.13;;;;;;;1.43;95.14;100429.41;10396808;28;20045;-78
2020/12/10 09:09:40;;;;;;;21.90;10.68;;;;;;;1.92;94.90;100498.72;10386732;28;20551;-78
2020/12/10 09:14:46;;;;;;;18.02;9.93;;;;;;;2.07;94.32;100516.97;10399370;28;20046;-78
2020/12/10 09:19:46;;;;;;;;;;;;;;;2.54;94.72;100583.94;10386713;28;20643;-79
2020/12/10 09:24:47;;;;;;;16.20;9.27;;;;;;;2.60;95.40;100587.25;10373725;28;19932;-77
2020/12/10 09:29:51;;;;;;;18.80;10.38;;;;;;;2.61;94.74;100578.13;10388281;28;20478;-79
2020/12/10 09:35:09;;;;;;;15.93;10.60;;;;;;;2.10;94.39;100485.16;10379800;28;20470;-78
2020/12/10 09:40:14;;;;;;;16.47;9.77;;;;;;;2.78;93.44;100572.81;10384392;28;20041;-78
2020/12/10 09:45:15;;;;;;;16.17;9.55;;;;;;;1.66;92.86;100398.94;10366248;28;20166;-78
2020/12/10 09:50:21;;;;;;;16.40;9.70;;;;;;;2.75;92.75;100546.75;10393822;28;20057;-78
2020/12/10 10:01:10;;;;;;;17.02;10.20;;;;;;;2.33;92.46;100493.03;10274690;28;20061;-78
2020/12/10 10:06:16;;;;;;;16.50;9.45;;;;;;;2.66;92.56;100527.28;10394835;28;20084;-78
2020/12/10 10:11:16;;;;;;;13.35;8.63;;;;;;;2.50;91.84;100487.72;10399588;28;20049;-79
2020/12/10 10:16:17;;;;;;;16.92;9.35;;;;;;;2.91;91.96;100555.84;10391559;28;20041;-79
2020/12/10 10:21:18;;;;;;;14.77;9.15;;;;;;;3.13;91.67;100556.81;10398962;28;20041;-78
2020/12/10 10:26:20;;;;;;;17.83;9.13;;;;;;;2.80;90.37;100493.22;10392547;28;20052;-77
2020/12/10 10:31:20;;;;;;;15.80;9.37;;;;;;;3.25;89.91;100581.00;10361391;28;20050;-78
2020/12/10 10:36:33;;;;;;;18.52;9.38;;;;;;;2.97;89.37;100517.22;10394423;28;20095;-81
2020/12/10 10:41:43;;;;;;;16.60;9.60;;;;;;;3.38;88.76;100568.56;10383329;28;20068;-80
2020/12/10 10:46:47;;;;;;;17.15;9.63;;;;;;;3.01;88.54;100508.59;10381632;28;20048;-79
2020/12/10 10:51:48;;;;;;;14.35;9.15;;;;;;;2.88;88.56;100487.09;10397729;28;20046;-79
2020/12/10 10:57:03;;;;;;;14.38;9.07;;;;;;;3.52;89.15;100576.41;10408723;28;20100;-77
2020/12/10 11:02:03;;;;;;;13.60;7.75;;;;;;;3.11;88.20;100500.25;10358472;28;20041;-78
2020/12/10 11:07:05;;;;;;;13.27;8.77;;;;;;;2.83;88.16;100447.22;10393050;28;20037;-78
2020/12/10 11:12:05;;;;;;;15.20;8.02;;;;;;;3.53;88.13;100553.94;10408862;28;20057;-79
2020/12/10 11:17:29;;;;;;;17.42;9.90;;;;;;;3.27;87.79;100487.97;10402166;28;20044;-78
2020/12/10 11:22:34;;;;;;;15.68;8.82;;;;;;;3.18;88.04;100474.63;10404860;28;20052;-79
2020/12/10 11:27:37;;;;;;;16.42;9.32;;;;;;;3.45;87.82;100499.38;10403650;28;20038;-78
2020/12/10 11:32:37;;;;;;;15.00;9.10;;;;;;;3.42;87.57;100493.91;10409645;28;20490;-77
2020/12/10 11:37:40;;;;;;;17.60;9.40;;;;;;;3.58;87.51;100497.63;10390931;28;20060;-77
2020/12/10 11:42:43;;;;;;;14.85;9.10;;;;;;;3.55;86.74;100466.19;10403732;28;20103;-78
2020/12/10 11:48:04;;;;;;;14.27;9.45;;;;;;;3.85;86.55;100504.44;10399693;28;20065;-79
2020/12/10 11:58:58;;;;;;;18.02;8.73;;;;;;;3.97;85.61;100477.78;10227146;28;20132;-77
2020/12/10 12:04:19;;;;;;;15.07;8.75;;;;;;;3.62;84.95;100407.66;10374325;28;20049;-79
2020/12/10 12:10:22;;;;;;;14.73;8.95;;;;;;;3.68;84.39;100417.06;10397321;28;20505;-81
2020/12/10 12:16:00;;;;;;;15.20;8.90;;;;;;;3.65;85.40;100404.38;10405933;28;20034;-79
2020/12/10 12:21:08;;;;;;;12.40;8.23;;;;;;;4.26;84.61;100483.44;10405251;28;20053;-78
2020/12/10 12:26:08;;;;;;;14.40;9.27;;;;;;;2.74;84.20;100251.59;10402585;28;20037;-78
2020/12/10 12:31:08;;;;;;;15.95;9.82;;;;;;;4.15;85.12;100473.13;10385017;28;20561;-78
2020/12/10 12:36:29;;;;;;;18.80;10.40;;;;;;;4.12;85.67;100471.09;10382264;28;20940;-79
2020/12/10 12:41:41;;;;;;;19.00;10.48;;;;;;;3.97;86.06;100477.00;10387772;28;20041;-79
2020/12/10 12:46:41;;;;;;;20.73;10.88;;;;;;;3.67;86.23;100420.88;10383179;28;20382;-78
2020/12/10 12:51:42;;;;;;;18.42;10.65;;;;;;;3.96;86.38;100475.44;10408072;28;20046;-79
2020/12/10 12:56:46;;;;;;;17.98;11.20;;;;;;;4.14;86.40;100460.88;10383758;28;20049;-78
2020/12/10 13:01:47;;;;;;;17.42;10.57;;;;;;;3.89;84.62;100384.25;10378290;28;20079;-79
2020/12/10 13:07:09;;;;;;;17.07;9.73;;;;;;;4.62;83.39;100467.59;10375831;28;20490;-79
2020/12/10 13:12:10;;;;;;;15.75;9.77;;;;;;;4.53;83.12;100450.81;10365532;28;20455;-78
2020/12/10 13:17:54;;;;;;;16.45;10.05;;;;;;;4.51;81.69;100420.91;10386601;28;20056;-78
2020/12/10 13:23:38;;;;;;;15.50;9.90;;;;;;;3.49;80.88;100232.31;10392374;28;20164;-78
2020/12/10 13:28:53;;;;;;;16.27;10.63;;;;;;;4.14;80.91;100332.47;10400081;28;20059;-77
2020/12/10 13:34:15;;;;;;;18.30;10.70;;;;;;;4.48;80.93;100378.75;10362799;28;20111;-78
2020/12/10 13:39:16;;;;;;;14.17;9.37;;;;;;;4.58;80.46;100405.09;10397591;28;20108;-77
2020/12/10 13:44:23;;;;;;;15.77;9.93;;;;;;;4.36;80.73;100386.75;10385979;28;20128;-78
2020/12/10 13:49:24;;;;;;;15.05;9.98;;;;;;;4.75;80.96;100440.88;10383869;28;20064;-78
2020/12/10 13:54:27;;;;;;;15.82;9.70;;;;;;;4.68;80.31;100445.97;10391550;28;20041;-78
2020/12/10 13:59:27;;;;;;;16.08;9.40;;;;;;;4.17;80.26;100385.31;10397504;28;20042;-78
2020/12/10 14:04:48;;;;;;;17.52;10.15;;;;;;;4.60;80.53;100429.66;10387798;28;20048;-79
2020/12/10 14:09:48;;;;;;;17.45;10.50;;;;;;;4.66;80.19;100449.00;10391095;28;20054;-79
2020/12/10 14:14:49;;;;;;;14.77;9.13;;;;;;;4.45;80.34;100408.84;10382222;28;20045;-79
2020/12/10 14:19:49;;;;;;;16.77;9.40;;;;;;;4.65;79.23;100453.53;10383798;28;20041;-78
2020/12/10 14:24:50;;;;;;;17.40;9.15;;;;;;;4.77;79.23;100454.72;10393760;28;21778;-78
2020/12/10 14:29:50;;;;;;;17.17;10.02;;;;;;;4.21;79.78;100378.19;10402044;28;20057;-76
2020/12/10 14:34:54;;;;;;;19.50;10.10;;;;;;;4.08;80.03;100381.91;10377042;28;20045;-79
2020/12/10 14:39:54;;;;;;;16.52;10.10;;;;;;;4.33;80.12;100451.63;10376192;28;20613;-77
2020/12/10 14:44:55;;;;;;;17.30;9.05;;;;;;;3.63;80.48;100355.00;10383702;28;20118;-78
2020/12/10 14:49:55;;;;;;;14.93;8.70;;;;;;;3.97;80.70;100408.25;10391808;28;20052;-80
2020/12/10 14:54:56;;;;;;;19.98;10.65;;;;;;;4.06;80.79;100448.31;10374360;28;20110;-76
2020/12/10 15:00:17;;;;;;;20.52;10.98;;;;;;;4.06;81.10;100467.03;10399891;28;20038;-78
2020/12/10 15:05:38;;;;;;;19.60;10.35;;;;;;;3.41;81.58;100393.47;10382664;28;20080;-78
2020/12/10 15:10:41;;;;;;;19.92;10.75;;;;;;;3.63;81.90;100449.34;10386856;28;20493;-79
2020/12/10 15:15:42;;;;;;;19.85;10.68;;;;;;;3.24;82.22;100403.09;10396179;28;20069;-83
2020/12/10 15:21:07;;;;;;;23.92;12.25;;;;;;;3.12;83.13;100411.00;10393880;28;20029;-82
2020/12/10 15:26:31;;;;;;;18.77;10.68;;;;;;;3.32;84.19;100463.75;10408631;28;20394;-80
2020/12/10 15:31:31;;;;;;;18.55;11.00;;;;;;;3.13;84.44;100455.34;10379356;28;20045;-75
2020/12/10 15:36:34;;;;;;;23.20;12.10;;;;;;;2.95;84.78;100455.34;10342072;28;20121;-80
2020/12/10 15:41:47;;;;;;;20.08;11.73;;;;;;;2.91;85.25;100459.75;10402045;28;20045;-81
2020/12/10 15:46:47;;;;;;;19.42;11.57;;;;;;;2.67;85.60;100432.78;10382203;28;20033;-77
2020/12/10 15:52:10;;;;;;;21.15;11.63;;;;;;;2.38;85.94;100409.41;10382494;28;20053;-82
2020/12/10 15:57:15;;;;;;;23.67;12.35;;;;;;;2.62;86.09;100457.75;10390079;28;20063;-78
2020/12/10 16:02:27;;;;;;;25.92;13.02;;;;;;;2.53;86.72;100460.41;10381926;28;20064;-83
2020/12/10 16:07:32;;;;;;;25.80;13.23;;;;;;;1.91;87.11;100370.00;10361148;28;20111;-84
2020/12/10 16:13:06;;;;;;;23.05;12.30;;;;;;;0.98;87.73;100232.56;10367032;28;20069;-85
2020/12/10 16:18:08;;;;;;;23.60;13.82;;;;;;;1.63;87.68;100348.19;10349509;28;20034;-83
2020/12/10 16:23:12;;;;;;;23.23;12.90;;;;;;;2.21;87.86;100431.50;10393492;28;20142;-83
2020/12/10 16:28:12;;;;;;;29.73;15.70;;;;;;;2.13;88.87;100445.63;10403523;28;20095;-81
2020/12/10 16:33:16;;;;;;;32.38;14.30;;;;;;;1.82;88.29;100379.88;10369026;28;20152;-83
2020/12/10 16:38:17;;;;;;;27.92;13.52;;;;;;;2.17;88.05;100435.91;10372239;28;20111;-82
2020/12/10 16:43:21;;;;;;;28.70;14.40;;;;;;;1.96;88.25;100399.19;10334772;28;20095;-84
2020/12/10 16:48:27;;;;;;;29.15;14.32;;;;;;;1.24;88.57;100305.28;10381037;28;20140;-84
2020/12/10 16:53:28;;;;;;;26.83;15.15;;;;;;;2.02;88.85;100411.28;10395835;28;20046;-82
2020/12/10 16:58:30;;;;;;;29.55;14.77;;;;;;;1.96;88.87;100377.84;10381400;28;20065;-82
2020/12/10 17:03:31;;;;;;;23.00;13.48;;;;;;;1.59;88.39;100313.38;10385643;28;20034;-82
2020/12/10 17:08:31;;;;;;;26.55;14.02;;;;;;;2.08;88.13;100374.56;10386680;28;20087;-81
2020/12/10 17:13:32;;;;;;;24.98;13.18;;;;;;;1.78;88.19;100328.28;10379910;28;20060;-80
2020/12/10 17:18:32;;;;;;;22.63;13.40;;;;;;;1.99;87.31;100355.88;10396759;28;20056;-81
2020/12/10 17:23:33;;;;;;;24.10;14.48;;;;;;;2.19;87.76;100385.69;10363627;28;20048;-83
2020/12/10 17:28:34;;;;;;;28.73;13.90;;;;;;;1.66;87.93;100305.69;10383092;28;20048;-77
2020/12/10 17:33:36;;;;;;;31.75;15.00;;;;;;;2.10;87.95;100367.03;10382493;28;20497;-81
2020/12/10 17:38:36;;;;;;;27.57;14.77;;;;;;;1.76;87.85;100319.81;10370725;28;20084;-77
2020/12/10 17:43:37;;;;;;;31.30;15.35;;;;;;;1.66;87.70;100300.38;10398843;28;20034;-79
2020/12/10 17:48:38;;;;;;;26.17;14.70;;;;;;;1.55;87.80;100283.09;10376753;28;20643;-77
2020/12/10 17:53:38;;;;;;;25.10;13.82;;;;;;;1.92;88.47;100347.56;10375691;28;20076;-78
2020/12/10 17:58:41;;;;;;;23.85;13.45;;;;;;;1.91;88.45;100338.03;10379401;28;20125;-78
2020/12/10 18:03:41;;;;;;;;;;;;;;;2.00;88.00;100346.81;10378500;28;20044;-77
2020/12/10 18:08:42;;;;;;;23.50;13.55;;;;;;;1.77;88.05;100316.06;10391859;28;19928;-79
2020/12/10 18:13:42;;;;;;;25.58;13.57;;;;;;;1.96;87.40;100340.53;10387007;28;20041;-77
2020/12/10 18:18:43;;;;;;;30.33;13.38;;;;;;;1.95;87.87;100344.28;10391234;28;20045;-78
2020/12/10 18:23:44;;;;;;;26.42;14.40;;;;;;;1.86;88.05;100335.50;10395509;28;20504;-79
2020/12/10 18:28:45;;;;;;;24.50;13.90;;;;;;;2.04;88.26;100363.72;10361348;28;20501;-79
2020/12/10 18:33:45;;;;;;;23.63;14.30;;;;;;;1.55;88.17;100283.09;10384998;28;20052;-80
2020/12/10 18:38:46;;;;;;;23.65;12.93;;;;;;;1.38;87.46;100251.13;10372698;28;20053;-79
2020/12/10 18:43:46;;;;;;;23.13;12.85;;;;;;;2.00;87.28;100333.47;10383603;28;20124;-78
2020/12/10 18:48:47;;;;;;;25.10;13.45;;;;;;;2.15;86.46;100352.78;10388666;28;20049;-80
2020/12/10 18:53:47;;;;;;;25.60;13.95;;;;;;;2.20;86.48;100389.94;10384319;28;20159;-80
2020/12/10 18:58:48;;;;;;;24.33;13.98;;;;;;;2.21;86.36;100362.16;10388298;28;20091;-79
2020/12/10 19:03:48;;;;;;;23.83;13.57;;;;;;;2.19;86.30;100353.69;10357706;28;20044;-79
2020/12/10 19:08:49;;;;;;;26.40;13.70;;;;;;;1.69;86.27;100283.78;10398165;28;20049;-80
2020/12/10 19:13:50;;;;;;;29.27;12.98;;;;;;;1.79;85.89;100281.91;10397043;28;20053;-80
2020/12/10 19:18:50;;;;;;;21.48;12.80;;;;;;;2.32;85.80;100374.09;10372779;28;20041;-79
2020/12/10 19:23:51;;;;;;;25.05;14.02;;;;;;;2.32;85.74;100374.09;10399739;28;20462;-81
2020/12/10 19:28:51;;;;;;;22.23;13.48;;;;;;;2.15;86.28;100358.09;10397348;28;20671;-80
2020/12/10 19:33:52;;;;;;;24.33;14.35;;;;;;;1.87;86.12;100315.75;10373424;28;20090;-81
2020/12/10 19:38:52;;;;;;;23.05;14.38;;;;;;;2.01;85.79;100332.38;10383294;28;20057;-82
2020/12/10 19:43:53;;;;;;;23.55;13.27;;;;;;;2.23;86.06;100360.75;10364050;28;20041;-81
2020/12/10 19:48:53;;;;;;;23.20;13.95;;;;;;;2.11;86.22;100348.03;10384193;28;21664;-80
2020/12/10 19:53:57;;;;;;;23.63;14.68;;;;;;;1.73;86.32;100309.78;10385988;28;20540;-80
2020/12/10 19:59:03;;;;;;;22.73;14.63;;;;;;;1.81;86.70;100295.66;10386828;28;20041;-81
2020/12/10 20:04:07;;;;;;;27.33;14.30;;;;;;;1.88;86.53;100311.97;10373589;28;20033;-84
2020/12/10 20:09:16;;;;;;;25.30;13.95;;;;;;;1.84;86.87;100300.41;10338360;28;20104;-84
2020/12/10 20:14:20;;;;;;;22.67;13.40;;;;;;;1.85;87.30;100301.94;10376552;28;20052;-82
2020/12/10 20:19:23;;;;;;;27.35;15.55;;;;;;;1.69;86.91;100273.13;10396810;28;20036;-79
2020/12/10 20:24:24;;;;;;;24.88;14.18;;;;;;;1.27;87.57;100203.50;10384313;28;20041;-82
2020/12/10 20:29:31;;;;;;;22.73;14.87;;;;;;;0.62;87.59;100092.56;10358142;28;20044;-82
2020/12/10 20:34:32;;;;;;;26.15;14.40;;;;;;;1.54;87.76;100222.94;10380522;28;20053;-81
2020/12/10 20:39:32;;;;;;;25.52;15.68;;;;;;;1.30;88.00;100185.34;10376702;28;20097;-87
2020/12/10 20:44:33;;;;;;;29.60;15.57;;;;;;;1.57;87.74;100222.31;10375910;28;20069;-84
2020/12/10 20:49:33;;;;;;;31.02;16.00;;;;;;;1.40;87.94;100201.00;10369981;28;20048;-82
2020/12/10 20:54:37;;;;;;;30.38;16.17;;;;;;;1.54;87.92;100238.94;10378017;28;20160;-80
2020/12/10 20:59:37;;;;;;;25.80;15.50;;;;;;;1.51;87.90;100215.59;10361773;28;20470;-82
2020/12/10 21:04:41;;;;;;;26.83;15.95;;;;;;;1.40;88.09;100206.34;10393475;28;20052;-82
2020/12/10 21:09:41;;;;;;;24.42;14.77;;;;;;;1.37;88.33;100201.63;10376622;28;20114;-81
2020/12/10 21:14:45;;;;;;;24.60;15.25;;;;;;;1.27;87.73;100198.19;10378711;28;20464;-83
2020/12/10 21:19:46;;;;;;;25.42;14.85;;;;;;;1.33;88.29;100211.34;10385257;28;20049;-82
2020/12/10 21:24:46;;;;;;;26.83;14.98;;;;;;;0.77;87.85;100142.66;10357032;28;20049;-82
2020/12/10 21:29:46;;;;;;;27.05;14.82;;;;;;;1.21;87.82;100215.41;10340274;28;20042;-74
2020/12/10 21:34:47;;;;;;;25.58;15.00;;;;;;;1.08;88.07;100216.31;10374345;28;20049;-83
2020/12/10 21:39:48;;;;;;;29.95;15.38;;;;;;;0.80;88.80;100195.28;10367874;28;20462;-83
2020/12/10 21:44:48;;;;;;;28.02;16.05;;;;;;;1.09;88.54;100239.19;10352865;28;20068;-82
2020/12/10 21:49:49;;;;;;;25.55;15.77;;;;;;;1.03;88.59;100213.78;10382902;28;20037;-82
2020/12/10 21:54:49;;;;;;;29.13;15.75;;;;;;;1.09;88.81;100211.78;10353850;28;20045;-83
2020/12/10 21:59:50;;;;;;;27.40;15.82;;;;;;;0.97;88.88;100199.06;10376067;28;20080;-81
2020/12/10 22:04:50;;;;;;;29.70;16.42;;;;;;;0.62;88.75;100145.78;10372301;28;20479;-81
2020/12/10 22:09:51;;;;;;;25.40;15.38;;;;;;;0.94;88.71;100189.03;10385828;28;20053;-81
2020/12/10 22:14:51;;;;;;;25.75;15.88;;;;;;;0.82;88.96;100177.13;10385240;28;20052;-80
2020/12/10 22:19:52;;;;;;;28.52;17.55;;;;;;;0.90;89.20;100172.13;10390732;28;20668;-82
2020/12/10 22:24:52;;;;;;;27.50;17.17;;;;;;;0.66;89.05;100125.44;10381803;28;20038;-82
2020/12/10 22:29:52;;;;;;;27.27;16.65;;;;;;;0.37;89.34;100086.88;10338337;28;20127;-83
2020/12/10 22:34:54;;;;;;;28.73;18.42;;;;;;;0.73;89.62;100133.75;10385941;28;20039;-78
2020/12/10 22:39:54;;;;;;;32.95;17.77;;;;;;;0.34;89.73;100055.59;10385979;28;20045;-76
2020/12/10 22:44:55;;;;;;;29.52;18.58;;;;;;;0.34;89.09;100034.31;10380157;28;20049;-76
2020/12/10 22:49:55;;;;;;;32.28;19.00;;;;;;;0.28;89.24;100003.66;10366717;28;20049;-76
2020/12/10 22:54:55;;;;;;;32.63;18.25;;;;;;;0.29;89.68;99994.59;10369624;28;20061;-77
2020/12/10 22:59:56;;;;;;;29.65;18.48;;;;;;;0.62;89.72;100039.38;10381302;28;20055;-77
2020/12/10 23:04:56;;;;;;;30.75;18.38;;;;;;;0.61;89.52;100027.97;10384252;28;20134;-77
2020/12/10 23:09:57;;;;;;;29.65;18.30;;;;;;;0.57;89.20;100031.56;10367550;28;20049;-77
2020/12/10 23:14:58;;;;;;;35.55;19.10;;;;;;;0.48;90.06;100012.16;10385732;28;20037;-77
2020/12/10 23:19:59;;;;;;;27.42;17.70;;;;;;;0.60;89.94;100025.59;10385641;28;20041;-76